Time;durP1;ratioP1;P1;durP2;ratioP2;P2;SDS_P1;SDS_P2;PMS_P1;PMS_P2;Temp;Humidity;BMP_temperature;BMP_pressure;BME280_temperature;BME280_humidity;BME280_pressure;Samples;Min_cycle;Max_cycle;Signal;HPM_P1;HPM_P2
2023/01/22 00:00:15;;;;;;;21.37;14.23;;;;;;;-0.09;100.00;102197.84;698195;28;1290;-62
2023/01/22 00:00:36;;;;;;;22.08;14.15;;;;;;;-0.13;100.00;102196.75;697515;28;2061;-61
2023/01/22 00:00:56;;;;;;;23.47;14.53;;;;;;;-0.16;100.00;102204.28;697577;28;1080;-61
2023/01/22 00:01:17;;;;;;;21.97;13.97;;;;;;;-0.21;100.00;102203.09;697839;28;5144;-60
2023/01/22 00:01:37;;;;;;;22.20;14.60;;;;;;;-0.21;100.00;102204.00;698040;28;1079;-60
2023/01/22 00:01:57;;;;;;;22.08;14.15;;;;;;;-0.21;100.00;102205.66;696904;28;1030;-58
2023/01/22 00:02:18;;;;;;;23.10;13.90;;;;;;;-0.09;100.00;102205.56;697748;28;1087;-61
2023/01/22 00:02:38;;;;;;;23.37;13.77;;;;;;;-0.10;100.00;102201.19;698190;28;1149;-62
2023/01/22 00:02:58;;;;;;;22.60;13.95;;;;;;;-0.05;100.00;102199.81;697373;28;4472;-60
2023/01/22 00:03:19;;;;;;;22.27;14.00;;;;;;;0.02;100.00;102201.09;701242;28;1079;-59
2023/01/22 00:03:40;;;;;;;24.58;15.35;;;;;;;0.01;100.00;102204.47;700280;28;1263;-60
2023/01/22 00:04:00;;;;;;;21.77;14.35;;;;;;;0.02;100.00;102201.97;700628;28;1075;-60
2023/01/22 00:04:20;;;;;;;22.23;14.30;;;;;;;0.06;100.00;102208.22;698331;28;1183;-60
2023/01/22 00:04:41;;;;;;;22.50;14.50;;;;;;;0.05;100.00;102211.56;697219;28;1131;-60
2023/01/22 00:05:02;;;;;;;24.20;15.00;;;;;;;-0.02;100.00;102203.47;697044;28;1083;-59
2023/01/22 00:05:22;;;;;;;23.50;14.68;;;;;;;-0.02;100.00;102206.03;697128;28;1347;-61
2023/01/22 00:05:42;;;;;;;22.08;14.27;;;;;;;0.05;100.00;102206.44;695383;28;2134;-61
2023/01/22 00:06:04;;;;;;;22.27;14.50;;;;;;;0.08;100.00;102211.75;694284;28;4347;-60
2023/01/22 00:06:24;;;;;;;22.05;14.70;;;;;;;0.08;100.00;102202.34;697077;28;1521;-60
2023/01/22 00:06:45;;;;;;;22.02;14.57;;;;;;;0.08;100.00;102198.91;697277;28;1277;-60
2023/01/22 00:07:05;;;;;;;21.08;14.00;;;;;;;0.06;100.00;102205.66;697155;28;1317;-59
2023/01/22 00:07:25;;;;;;;21.40;13.50;;;;;;;0.08;100.00;102201.47;698355;28;1182;-59
2023/01/22 00:07:46;;;;;;;21.57;13.73;;;;;;;0.06;100.00;102208.22;700073;28;1150;-58
2023/01/22 00:08:06;;;;;;;21.38;14.20;;;;;;;0.03;100.00;102214.06;700266;28;1257;-61
2023/01/22 00:08:27;;;;;;;20.53;13.73;;;;;;;-0.02;100.00;102202.56;700675;28;1249;-60
2023/01/22 00:08:47;;;;;;;20.80;13.50;;;;;;;-0.06;100.00;102206.63;699309;28;4461;-61
2023/01/22 00:09:07;;;;;;;20.70;13.83;;;;;;;-0.11;100.00;102200.31;699812;28;1210;-61
2023/01/22 00:09:28;;;;;;;21.90;14.65;;;;;;;-0.17;100.00;102207.63;700444;28;1337;-61
2023/01/22 00:09:48;;;;;;;22.63;14.93;;;;;;;-0.12;100.00;102210.50;701005;28;1258;-62
2023/01/22 00:10:10;;;;;;;21.70;14.30;;;;;;;-0.16;100.00;102211.13;700633;28;1107;-61
2023/01/22 00:10:31;;;;;;;21.70;14.10;;;;;;;-0.16;100.00;102209.41;697398;28;1306;-58
2023/01/22 00:10:52;;;;;;;22.10;14.50;;;;;;;-0.11;100.00;102209.69;697323;28;1292;-61
2023/01/22 00:11:14;;;;;;;21.52;14.23;;;;;;;-0.07;100.00;102206.53;694816;28;1373;-61
2023/01/22 00:11:35;;;;;;;22.38;14.27;;;;;;;-0.08;100.00;102208.22;694911;28;1148;-61
2023/01/22 00:11:56;;;;;;;22.17;14.37;;;;;;;-0.07;100.00;102203.97;694566;28;4353;-61
2023/01/22 00:12:17;;;;;;;23.45;15.10;;;;;;;-0.03;100.00;102205.94;694823;28;1475;-61
2023/01/22 00:12:37;;;;;;;22.77;15.32;;;;;;;-0.02;100.00;102198.31;695637;28;1160;-61
2023/01/22 00:12:57;;;;;;;21.63;14.77;;;;;;;-0.05;100.00;102195.56;695297;28;1071;-60
2023/01/22 00:13:19;;;;;;;21.53;14.23;;;;;;;-0.07;100.00;102196.25;697733;28;1106;-60
2023/01/22 00:13:40;;;;;;;21.50;14.02;;;;;;;-0.13;100.00;102207.03;699449;28;1111;-61
2023/01/22 00:14:00;;;;;;;21.87;14.50;;;;;;;-0.10;100.00;102196.94;698487;28;1427;-62
2023/01/22 00:14:20;;;;;;;22.17;14.40;;;;;;;-0.13;100.00;102196.75;698488;28;1083;-60
2023/01/22 00:14:42;;;;;;;22.50;13.97;;;;;;;-0.05;100.00;102195.56;698677;28;1138;-59
2023/01/22 00:15:02;;;;;;;22.20;13.75;;;;;;;-0.08;100.00;102200.50;697619;28;4620;-61
2023/01/22 00:15:23;;;;;;;22.25;13.60;;;;;;;-0.12;100.00;102201.13;697689;28;1343;-60
2023/01/22 00:15:43;;;;;;;21.07;13.97;;;;;;;-0.14;100.00;102204.38;698034;28;1139;-61
2023/01/22 00:16:04;;;;;;;22.20;14.57;;;;;;;-0.21;100.00;102204.00;700534;28;1127;-60
2023/01/22 00:16:24;;;;;;;22.45;14.70;;;;;;;-0.20;100.00;102199.72;700298;28;1241;-61
2023/01/22 00:16:45;;;;;;;23.07;15.07;;;;;;;-0.15;100.00;102208.63;700401;28;1258;-61
2023/01/22 00:17:05;;;;;;;24.03;14.67;;;;;;;-0.19;100.00;102204.97;699374;28;1043;-61
2023/01/22 00:17:25;;;;;;;23.67;14.43;;;;;;;-0.19;100.00;102206.66;700397;28;1155;-60
2023/01/22 00:17:46;;;;;;;22.45;14.48;;;;;;;-0.19;100.00;102199.81;699663;28;4432;-59
2023/01/22 00:18:06;;;;;;;21.80;14.53;;;;;;;-0.22;100.00;102202.22;700533;28;1134;-60
2023/01/22 00:18:26;;;;;;;21.30;14.73;;;;;;;-0.25;100.00;102195.97;701301;28;1055;-60
2023/01/22 00:18:47;;;;;;;21.80;14.57;;;;;;;-0.24;100.00;102198.63;699513;28;1305;-59
2023/01/22 00:19:08;;;;;;;24.13;15.35;;;;;;;-0.21;100.00;102204.00;700436;28;1035;-60
2023/01/22 00:19:28;;;;;;;22.70;15.00;;;;;;;-0.19;100.00;102201.53;700828;28;1126;-60
2023/01/22 00:19:49;;;;;;;21.87;14.47;;;;;;;-0.17;100.00;102199.91;700831;28;1911;-62
2023/01/22 00:20:12;;;;;;;21.90;14.70;;;;;;;-0.16;100.00;102201.72;699163;28;1260;-61
2023/01/22 00:20:32;;;;;;;23.60;15.00;;;;;;;-0.10;100.00;102196.94;700461;28;1305;-60
2023/01/22 00:20:54;;;;;;;21.80;14.10;;;;;;;-0.06;100.00;102196.34;699858;28;4370;-61
2023/01/22 00:21:14;;;;;;;21.17;13.93;;;;;;;-0.01;100.00;102194.97;700475;28;1191;-60
2023/01/22 00:21:35;;;;;;;23.00;14.40;;;;;;;0.02;100.00;102191.69;699791;28;1111;-59
2023/01/22 00:21:55;;;;;;;22.67;14.60;;;;;;;0.01;100.00;102189.03;699771;28;1067;-60
2023/01/22 00:22:15;;;;;;;21.93;14.47;;;;;;;0.06;100.00;102192.78;701086;28;1215;-60
2023/01/22 00:22:36;;;;;;;22.67;14.23;;;;;;;0.06;100.00;102191.09;700167;28;1051;-61
2023/01/22 00:22:56;;;;;;;22.97;14.53;;;;;;;-0.04;100.00;102194.78;699875;28;1221;-60
2023/01/22 00:23:17;;;;;;;23.63;14.60;;;;;;;-0.07;100.00;102192.00;699788;28;1231;-60
2023/01/22 00:23:38;;;;;;;22.02;14.27;;;;;;;-0.10;100.00;102185.78;700535;28;1210;-60
2023/01/22 00:23:59;;;;;;;21.80;14.20;;;;;;;-0.13;100.00;102186.47;698986;28;4505;-59
2023/01/22 00:24:19;;;;;;;23.08;14.55;;;;;;;-0.11;100.00;102189.13;699961;28;1137;-59
2023/01/22 00:24:40;;;;;;;22.07;14.27;;;;;;;-0.12;100.00;102192.53;700210;28;1114;-60
2023/01/22 00:25:00;;;;;;;21.70;14.05;;;;;;;-0.09;100.00;102190.13;700057;28;1233;-60
2023/01/22 00:25:20;;;;;;;22.97;14.73;;;;;;;-0.08;100.00;102185.09;698520;28;1087;-60
2023/01/22 00:25:41;;;;;;;22.77;14.88;;;;;;;-0.06;100.00;102188.63;699364;28;1153;-60
2023/01/22 00:26:09;;;;;;;21.97;14.23;;;;;;;-0.05;100.00;102184.41;698053;28;1368;-61
2023/01/22 00:26:30;;;;;;;21.67;14.10;;;;;;;0.01;100.00;102189.91;698060;28;1206;-58
2023/01/22 00:26:50;;;;;;;21.43;14.13;;;;;;;0.01;100.00;102189.03;697795;28;4541;-59
2023/01/22 00:27:11;;;;;;;21.90;14.75;;;;;;;-0.04;100.00;102184.50;696535;28;1337;-60
2023/01/22 00:27:31;;;;;;;20.87;14.33;;;;;;;-0.08;100.00;102189.34;697413;28;1257;-61
2023/01/22 00:27:52;;;;;;;22.10;14.80;;;;;;;-0.07;100.00;102192.00;697926;28;1139;-60
2023/01/22 00:28:14;;;;;;;22.65;14.82;;;;;;;-0.04;100.00;102186.19;695217;28;1317;-60
2023/01/22 00:28:36;;;;;;;22.00;14.65;;;;;;;-0.06;100.00;102183.47;694211;28;1178;-61
2023/01/22 00:28:56;;;;;;;21.40;14.18;;;;;;;-0.11;100.00;102182.34;695081;28;1154;-59
2023/01/22 00:29:17;;;;;;;21.53;14.23;;;;;;;0.03;100.00;102187.44;698015;28;1580;-59
2023/01/22 00:29:37;;;;;;;22.63;14.90;;;;;;;-0.01;100.00;102182.09;697929;28;1315;-60
2023/01/22 00:29:58;;;;;;;23.65;14.77;;;;;;;-0.02;100.00;102179.44;698409;28;4526;-61
2023/01/22 00:30:18;;;;;;;21.53;14.50;;;;;;;-0.07;100.00;102188.53;701302;28;1274;-60
2023/01/22 00:30:39;;;;;;;21.13;14.32;;;;;;;-0.11;100.00;102190.03;700856;28;1157;-60
2023/01/22 00:31:01;;;;;;;21.90;14.00;;;;;;;-0.12;100.00;102182.25;697909;28;1142;-61
2023/01/22 00:31:22;;;;;;;23.63;14.90;;;;;;;-0.09;100.00;102185.88;695721;28;1569;-60
2023/01/22 00:31:43;;;;;;;21.90;14.80;;;;;;;-0.11;100.00;102179.75;692927;28;1505;-60
2023/01/22 00:32:03;;;;;;;22.08;14.93;;;;;;;-0.12;100.00;102187.38;693107;28;1193;-60
2023/01/22 00:32:24;;;;;;;23.70;15.57;;;;;;;-0.15;100.00;102176.88;692974;28;1135;-61
2023/01/22 00:32:45;;;;;;;22.00;15.10;;;;;;;-0.12;100.00;102177.97;695779;28;1178;-59
2023/01/22 00:33:06;;;;;;;22.10;14.80;;;;;;;-0.02;100.00;102182.00;695825;28;4552;-60
2023/01/22 00:33:26;;;;;;;21.45;14.55;;;;;;;-0.06;100.00;102173.19;697691;28;1184;-60
2023/01/22 00:33:48;;;;;;;22.27;14.65;;;;;;;-0.12;100.00;102177.97;697534;28;1357;-60
2023/01/22 00:34:09;;;;;;;22.58;14.60;;;;;;;-0.12;100.00;102177.97;695542;28;1178;-60
2023/01/22 00:34:30;;;;;;;22.63;15.00;;;;;;;-0.10;100.00;102176.38;696083;28;1143;-60
2023/01/22 00:34:53;;;;;;;22.40;14.98;;;;;;;-0.05;100.00;102172.41;695808;28;1243;-60
2023/01/22 00:35:14;;;;;;;21.27;15.13;;;;;;;-0.07;100.00;102176.59;695510;28;1333;-61
2023/01/22 00:35:34;;;;;;;21.50;14.73;;;;;;;-0.01;100.00;102179.53;695411;28;1094;-61
2023/01/22 00:35:55;;;;;;;21.33;14.82;;;;;;;0.02;100.00;102185.69;695111;28;4292;-62
2023/01/22 00:36:17;;;;;;;23.30;15.97;;;;;;;0.05;100.00;102170.44;692782;28;1313;-59
2023/01/22 00:36:40;;;;;;;22.02;13.93;;;;;;;0.08;100.00;102176.63;692413;28;1170;-60
2023/01/22 00:37:00;;;;;;;22.15;14.48;;;;;;;0.03;100.00;102177.16;692189;28;1144;-60
2023/01/22 00:37:20;;;;;;;23.10;15.13;;;;;;;0.06;100.00;102180.81;693368;28;1107;-60
2023/01/22 00:37:41;;;;;;;21.57;14.43;;;;;;;-0.02;100.00;102180.31;693764;28;1203;-60
2023/01/22 00:38:02;;;;;;;20.75;14.32;;;;;;;-0.03;100.00;102176.00;695165;28;1133;-60
2023/01/22 00:38:23;;;;;;;23.15;15.27;;;;;;;-0.08;100.00;102174.81;693687;28;1100;-59
2023/01/22 00:38:43;;;;;;;23.00;14.95;;;;;;;-0.07;100.00;102179.16;695908;28;1163;-60
2023/01/22 00:39:04;;;;;;;22.90;14.93;;;;;;;-0.06;100.00;102172.31;692295;28;4408;-65
2023/01/22 00:39:24;;;;;;;21.60;14.73;;;;;;;-0.04;100.00;102175.91;690100;28;1279;-60
2023/01/22 00:39:45;;;;;;;22.52;14.90;;;;;;;-0.04;100.00;102176.78;687095;28;1448;-58
2023/01/22 00:40:06;;;;;;;24.27;15.00;;;;;;;-0.06;100.00;102177.47;687459;28;1969;-60
2023/01/22 00:40:26;;;;;;;22.08;14.88;;;;;;;-0.10;100.00;102178.06;691981;28;1183;-60
2023/01/22 00:40:47;;;;;;;22.67;15.13;;;;;;;-0.14;100.00;102168.38;693300;28;1152;-59
2023/01/22 00:41:09;;;;;;;24.67;15.80;;;;;;;-0.16;100.00;102180.25;696226;28;1519;-60
2023/01/22 00:41:29;;;;;;;24.85;15.80;;;;;;;-0.18;100.00;102175.91;698818;28;1161;-60
2023/01/22 00:41:49;;;;;;;24.67;15.80;;;;;;;-0.27;100.00;102183.03;700484;28;4390;-60
2023/01/22 00:42:10;;;;;;;23.85;15.85;;;;;;;-0.30;100.00;102170.00;699749;28;1170;-61
2023/01/22 00:42:30;;;;;;;23.03;15.17;;;;;;;-0.12;100.00;102183.13;697551;28;3667;-60
2023/01/22 00:42:51;;;;;;;23.55;15.77;;;;;;;-0.14;100.00;102179.53;698014;28;1297;-60
2023/01/22 00:43:11;;;;;;;23.83;16.00;;;;;;;-0.18;100.00;102175.00;698210;28;1334;-60
2023/01/22 00:43:33;;;;;;;22.40;15.50;;;;;;;-0.21;100.00;102174.81;696999;28;1131;-60
2023/01/22 00:43:53;;;;;;;22.85;15.18;;;;;;;-0.26;100.00;102165.94;696371;28;1170;-60
2023/01/22 00:44:14;;;;;;;23.05;14.90;;;;;;;-0.31;100.00;102163.06;696697;28;1365;-61
2023/01/22 00:44:34;;;;;;;25.23;16.03;;;;;;;-0.28;100.00;102167.50;698152;28;1067;-61
2023/01/22 00:44:54;;;;;;;24.70;16.13;;;;;;;-0.19;100.00;102170.69;697879;28;4439;-60
2023/01/22 00:45:15;;;;;;;23.40;16.40;;;;;;;-0.14;100.00;102168.38;695056;28;1091;-61
2023/01/22 00:45:35;;;;;;;24.95;15.65;;;;;;;-0.12;100.00;102167.69;691982;28;1139;-60
2023/01/22 00:45:56;;;;;;;23.77;15.67;;;;;;;-0.12;100.00;102169.38;694488;28;1138;-61
2023/01/22 00:46:17;;;;;;;23.77;15.65;;;;;;;-0.12;100.00;102165.13;694973;28;1099;-60
2023/01/22 00:46:37;;;;;;;24.88;16.58;;;;;;;-0.13;100.00;102165.91;694459;28;1420;-60
2023/01/22 00:46:57;;;;;;;24.43;16.03;;;;;;;-0.12;100.00;102167.69;695954;28;1185;-61
2023/01/22 00:47:18;;;;;;;22.67;15.50;;;;;;;-0.12;100.00;102164.25;698526;28;1195;-60
2023/01/22 00:47:38;;;;;;;23.87;15.93;;;;;;;-0.19;100.00;102165.53;697206;28;1415;-62
2023/01/22 00:47:59;;;;;;;24.52;16.05;;;;;;;-0.18;100.00;102162.16;694781;28;4438;-60
2023/01/22 00:48:20;;;;;;;22.92;15.20;;;;;;;-0.12;100.00;102167.69;691908;28;997;-59
2023/01/22 00:48:41;;;;;;;23.77;15.43;;;;;;;-0.15;100.00;102159.78;692903;28;1800;-60
2023/01/22 00:49:02;;;;;;;25.90;16.77;;;;;;;-0.21;100.00;102157.72;693025;28;1072;-60
2023/01/22 00:49:22;;;;;;;25.00;16.38;;;;;;;-0.22;100.00;102167.91;693221;28;1365;-60
2023/01/22 00:49:43;;;;;;;23.53;15.47;;;;;;;-0.20;100.00;102161.19;693781;28;1168;-59
2023/01/22 00:50:03;;;;;;;25.13;15.93;;;;;;;-0.23;100.00;102159.28;693069;28;1256;-60
2023/01/22 00:50:24;;;;;;;24.87;15.97;;;;;;;-0.29;100.00;102161.50;698435;28;1083;-61
2023/01/22 00:50:44;;;;;;;25.02;16.17;;;;;;;-0.30;100.00;102156.25;693182;28;1262;-60
2023/01/22 00:51:07;;;;;;;24.47;16.37;;;;;;;-0.28;100.00;102158.09;689021;28;4536;-60
2023/01/22 00:51:28;;;;;;;24.05;15.73;;;;;;;-0.18;100.00;102164.72;687710;28;1890;-60
2023/01/22 00:51:49;;;;;;;24.85;16.42;;;;;;;-0.21;100.00;102156.81;686846;28;1391;-61
2023/01/22 00:52:09;;;;;;;24.30;16.00;;;;;;;-0.24;100.00;102161.78;687171;28;1240;-61
2023/01/22 00:52:30;;;;;;;24.33;16.02;;;;;;;-0.31;100.00;102154.47;685963;28;1664;-61
2023/01/22 00:52:50;;;;;;;24.43;15.77;;;;;;;-0.35;100.00;102163.66;689997;28;1172;-61
2023/01/22 00:53:11;;;;;;;25.43;16.47;;;;;;;-0.38;100.00;102154.06;691730;28;1406;-61
2023/01/22 00:53:31;;;;;;;24.10;16.20;;;;;;;-0.40;100.00;102159.91;691327;28;1167;-60
2023/01/22 00:53:51;;;;;;;23.75;16.50;;;;;;;-0.46;100.00;102160.41;690596;28;4572;-59
2023/01/22 00:54:12;;;;;;;23.73;16.33;;;;;;;-0.48;100.00;102164.56;691063;28;1124;-60
2023/01/22 00:54:33;;;;;;;26.38;17.33;;;;;;;-0.41;100.00;102165.84;691727;28;1302;-59
2023/01/22 00:54:54;;;;;;;25.80;17.58;;;;;;;-0.35;100.00;102162.00;693129;28;1297;-61
2023/01/22 00:55:14;;;;;;;25.87;17.03;;;;;;;-0.35;100.00;102159.44;695564;28;1076;-60
2023/01/22 00:55:35;;;;;;;24.97;16.03;;;;;;;-0.33;100.00;102168.88;697616;28;1146;-61
2023/01/22 00:55:58;;;;;;;24.33;15.90;;;;;;;-0.33;100.00;102154.38;695613;28;1041;-59
2023/01/22 00:56:18;;;;;;;24.52;16.20;;;;;;;-0.35;100.00;102159.44;693399;28;1451;-59
2023/01/22 00:56:38;;;;;;;24.80;16.08;;;;;;;-0.30;100.00;102157.13;694329;28;1144;-62
2023/01/22 00:56:59;;;;;;;25.47;16.20;;;;;;;-0.32;100.00;102162.97;689132;28;4689;-61
2023/01/22 00:57:20;;;;;;;24.80;15.83;;;;;;;-0.32;100.00;102165.53;690494;28;1210;-60
2023/01/22 00:57:41;;;;;;;26.27;15.73;;;;;;;-0.29;100.00;102161.50;689851;28;1002;-60
2023/01/22 00:58:01;;;;;;;26.67;16.43;;;;;;;-0.30;100.00;102156.25;691759;28;1083;-60
2023/01/22 00:58:22;;;;;;;24.87;16.30;;;;;;;-0.29;100.00;102155.44;691293;28;1105;-59
2023/01/22 00:58:42;;;;;;;24.50;15.25;;;;;;;-0.28;100.00;102162.38;690535;28;1180;-60
2023/01/22 00:59:09;;;;;;;24.70;15.83;;;;;;;-0.32;100.00;102153.56;689319;28;1339;-60
2023/01/22 00:59:29;;;;;;;26.02;16.70;;;;;;;-0.33;100.00;102156.94;688024;28;1451;-59
2023/01/22 00:59:51;;;;;;;25.17;16.07;;;;;;;-0.28;100.00;102149.53;688060;28;4517;-59
2023/01/22 01:00:13;;;;;;;23.45;15.52;;;;;;;-0.30;100.00;102152.00;687105;28;1595;-60
2023/01/22 01:00:34;;;;;;;26.17;16.48;;;;;;;-0.37;100.00;102148.16;687648;28;1730;-61
2023/01/22 01:00:55;;;;;;;26.70;16.47;;;;;;;-0.43;100.00;102152.91;688822;28;1382;-61
2023/01/22 01:01:15;;;;;;;25.40;16.60;;;;;;;-0.45;100.00;102151.91;686916;28;5095;-60
2023/01/22 01:01:37;;;;;;;24.98;16.88;;;;;;;-0.45;100.00;102157.03;689927;28;1283;-60
2023/01/22 01:01:57;;;;;;;25.30;16.67;;;;;;;-0.51;100.00;102156.66;691399;28;967;-60
2023/01/22 01:02:20;;;;;;;26.65;17.10;;;;;;;-0.51;100.00;102154.09;694549;28;1222;-61
2023/01/22 01:03:26;;;;;;;26.77;17.50;;;;;;;-0.56;100.00;102152.91;695668;28;4997;-59
2023/01/22 01:03:47;;;;;;;25.77;16.98;;;;;;;-0.58;100.00;102155.38;695831;28;1499;-60
2023/01/22 01:04:07;;;;;;;25.10;16.20;;;;;;;-0.60;100.00;102156.94;695912;28;1024;-60
2023/01/22 01:04:28;;;;;;;27.38;16.70;;;;;;;-0.61;100.00;102154.28;696149;28;1043;-60
2023/01/22 01:04:49;;;;;;;26.50;16.70;;;;;;;-0.64;100.00;102154.09;693537;28;1535;-62
2023/01/22 01:05:10;;;;;;;25.02;16.60;;;;;;;-0.64;100.00;102159.22;691290;28;1541;-59
2023/01/22 01:05:30;;;;;;;25.23;16.77;;;;;;;-0.66;100.00;102147.97;693190;28;1140;-61
2023/01/22 01:05:59;;;;;;;26.83;17.33;;;;;;;-0.66;100.00;102151.41;693210;28;4779;-61
2023/01/22 01:06:20;;;;;;;25.13;16.50;;;;;;;-0.65;100.00;102152.28;693279;28;1330;-61
2023/01/22 01:06:41;;;;;;;24.67;16.75;;;;;;;-0.63;100.00;102151.59;693338;28;1079;-62
2023/01/22 01:07:01;;;;;;;26.35;16.60;;;;;;;-0.59;100.00;102155.28;692652;28;1233;-61
2023/01/22 01:07:22;;;;;;;26.53;16.87;;;;;;;-0.54;100.00;102151.31;694412;28;1055;-60
2023/01/22 01:07:42;;;;;;;24.95;16.73;;;;;;;-0.55;100.00;102153.00;695633;28;1127;-61
2023/01/22 01:08:03;;;;;;;24.97;16.77;;;;;;;-0.61;100.00;102144.00;695920;28;1195;-61
2023/01/22 01:08:25;;;;;;;26.23;16.67;;;;;;;-0.63;100.00;102148.16;695717;28;1369;-60
2023/01/22 01:08:46;;;;;;;25.38;16.63;;;;;;;-0.59;100.00;102152.72;695768;28;4429;-61
2023/01/22 01:09:07;;;;;;;25.92;16.67;;;;;;;-0.58;100.00;102154.47;695265;28;1253;-60
2023/01/22 01:09:29;;;;;;;26.25;17.02;;;;;;;-0.59;100.00;102153.59;694757;28;1960;-60
2023/01/22 01:09:49;;;;;;;25.83;16.67;;;;;;;-0.56;100.00;102150.34;693888;28;1286;-60
2023/01/22 01:10:10;;;;;;;25.73;16.88;;;;;;;-0.51;100.00;102156.66;694767;28;1159;-59
2023/01/22 01:10:30;;;;;;;26.15;16.85;;;;;;;-0.46;100.00;102149.25;694650;28;1278;-60
2023/01/22 01:10:53;;;;;;;25.65;16.67;;;;;;;-0.54;100.00;102152.22;694725;28;1341;-61
2023/01/22 01:11:22;;;;;;;24.67;16.42;;;;;;;-0.57;100.00;102151.13;694733;28;1994;-62
2023/01/22 01:11:43;;;;;;;25.92;16.70;;;;;;;-0.60;100.00;102150.91;696058;28;2130;-60
2023/01/22 01:12:03;;;;;;;27.13;16.95;;;;;;;-0.53;100.00;102146.28;694470;28;4348;-60
2023/01/22 01:12:24;;;;;;;25.47;16.40;;;;;;;-0.50;100.00;102152.41;695679;28;1219;-59
2023/01/22 01:12:44;;;;;;;26.08;16.92;;;;;;;-0.42;100.00;102141.81;692997;28;1466;-60
2023/01/22 01:13:05;;;;;;;27.00;16.85;;;;;;;-0.44;100.00;102143.41;693548;28;1222;-61
2023/01/22 01:13:26;;;;;;;25.83;16.67;;;;;;;-0.37;100.00;102140.44;694314;28;1276;-60
2023/01/22 01:13:48;;;;;;;24.50;15.25;;;;;;;-0.37;100.00;102137.88;695946;28;1234;-59
2023/01/22 01:14:08;;;;;;;25.42;15.15;;;;;;;-0.32;100.00;102140.72;695723;28;1321;-60
2023/01/22 01:14:29;;;;;;;25.07;16.03;;;;;;;-0.43;100.00;102140.06;693167;28;1364;-60
2023/01/22 01:14:50;;;;;;;24.05;16.40;;;;;;;-0.52;100.00;102147.16;692018;28;4560;-60
2023/01/22 01:15:10;;;;;;;26.15;16.90;;;;;;;-0.55;100.00;102144.41;692354;28;1346;-60
2023/01/22 01:15:31;;;;;;;24.97;16.40;;;;;;;-0.55;100.00;102144.41;692293;28;1250;-60
2023/01/22 01:16:03;;;;;;;24.55;16.45;;;;;;;-0.54;100.00;102146.16;695371;28;1541;-61
2023/01/22 01:16:29;;;;;;;26.25;17.10;;;;;;;-0.61;100.00;102141.44;693498;28;2186;-63
2023/01/22 01:16:50;;;;;;;25.20;16.95;;;;;;;-0.65;100.00;102137.78;693050;28;1253;-61
2023/01/22 01:17:11;;;;;;;25.50;16.97;;;;;;;-0.69;100.00;102136.69;690179;28;1215;-60
2023/01/22 01:17:31;;;;;;;27.77;17.33;;;;;;;-0.64;100.00;102144.69;687242;28;1203;-60
2023/01/22 01:17:51;;;;;;;26.20;16.93;;;;;;;-0.67;100.00;102139.34;684210;28;4727;-61
2023/01/22 01:18:13;;;;;;;25.92;16.60;;;;;;;-0.65;100.00;102135.22;686923;28;1428;-60
2023/01/22 01:18:34;;;;;;;26.95;16.40;;;;;;;-0.59;100.00;102142.44;689824;28;1577;-61
2023/01/22 01:19:03;;;;;;;26.15;17.05;;;;;;;-0.51;100.00;102143.81;689337;28;1410;-60
2023/01/22 01:19:24;;;;;;;26.90;17.13;;;;;;;-0.53;100.00;102137.69;691753;28;1148;-59
2023/01/22 01:19:44;;;;;;;27.50;17.17;;;;;;;-0.56;100.00;102134.91;689576;28;1460;-60
2023/01/22 01:20:06;;;;;;;26.00;17.00;;;;;;;-0.57;100.00;102140.84;689169;28;1926;-61
2023/01/22 01:20:26;;;;;;;26.77;16.88;;;;;;;-0.52;100.00;102139.47;687733;28;1393;-61
2023/01/22 01:20:52;;;;;;;25.10;16.60;;;;;;;-0.52;100.00;102136.91;688529;28;4398;-60
2023/01/22 01:21:13;;;;;;;24.83;15.88;;;;;;;-0.51;100.00;102138.69;690292;28;1319;-61
2023/01/22 01:21:35;;;;;;;25.88;15.90;;;;;;;-0.50;100.00;102140.44;693956;28;1259;-61
2023/01/22 01:21:55;;;;;;;26.77;16.50;;;;;;;-0.55;100.00;102142.72;696019;28;1186;-62
2023/01/22 01:22:19;;;;;;;25.30;16.40;;;;;;;-0.51;100.00;102130.97;696575;28;1280;-60
2023/01/22 01:22:40;;;;;;;25.48;16.25;;;;;;;-0.58;100.00;102134.81;694541;28;1281;-60
2023/01/22 01:23:00;;;;;;;26.33;16.23;;;;;;;-0.52;100.00;102131.75;694688;28;1068;-60
2023/01/22 01:23:21;;;;;;;27.60;17.02;;;;;;;-0.58;100.00;102133.91;695255;28;1064;-60
2023/01/22 01:23:42;;;;;;;26.33;17.45;;;;;;;-0.62;100.00;102126.81;694530;28;1331;-61
2023/01/22 01:24:02;;;;;;;24.60;16.67;;;;;;;-0.63;100.00;102130.19;691000;28;4507;-61
2023/01/22 01:24:23;;;;;;;24.77;16.43;;;;;;;-0.55;100.00;102132.44;693429;28;1137;-59
2023/01/22 01:24:43;;;;;;;25.13;16.70;;;;;;;-0.51;100.00;102128.41;693842;28;1218;-60
2023/01/22 01:25:04;;;;;;;25.23;16.17;;;;;;;-0.40;100.00;102132.53;692652;28;1238;-60
2023/01/22 01:25:24;;;;;;;25.42;16.25;;;;;;;-0.47;100.00;102121.75;691453;28;1354;-60
2023/01/22 01:25:44;;;;;;;26.27;16.60;;;;;;;-0.49;100.00;102124.22;692390;28;1170;-61
2023/01/22 01:26:11;;;;;;;25.25;16.05;;;;;;;-0.46;100.00;102123.53;695500;28;1083;-60
2023/01/22 01:26:34;;;;;;;25.73;16.75;;;;;;;-0.48;100.00;102125.16;696341;28;1207;-59
2023/01/22 01:26:55;;;;;;;24.40;15.95;;;;;;;-0.43;100.00;102129.78;697320;28;4519;-61
2023/01/22 01:27:15;;;;;;;25.73;16.48;;;;;;;-0.46;100.00;102129.56;696962;28;1273;-62
2023/01/22 01:27:36;;;;;;;27.43;16.83;;;;;;;-0.46;100.00;102124.44;698645;28;1082;-61
2023/01/22 01:27:56;;;;;;;26.70;16.90;;;;;;;-0.46;100.00;102128.69;692739;28;1159;-61
2023/01/22 01:28:17;;;;;;;25.17;16.05;;;;;;;-0.42;100.00;102131.53;693742;28;1091;-60
2023/01/22 01:28:39;;;;;;;26.13;16.38;;;;;;;-0.54;100.00;102130.75;690517;28;1266;-59
2023/01/22 01:29:00;;;;;;;27.08;17.20;;;;;;;-0.53;100.00;102125.75;687890;28;1573;-61
2023/01/22 01:29:20;;;;;;;25.90;16.77;;;;;;;-0.52;100.00;102129.19;687149;28;1200;-60
2023/01/22 01:29:41;;;;;;;25.40;16.40;;;;;;;-0.55;100.00;102132.44;685082;28;1447;-61
2023/01/22 01:30:01;;;;;;;25.30;17.00;;;;;;;-0.58;100.00;102121.97;689346;28;4398;-61
2023/01/22 01:30:22;;;;;;;26.42;16.83;;;;;;;-0.58;100.00;102132.25;690605;28;1068;-60
2023/01/22 01:30:43;;;;;;;26.57;16.10;;;;;;;-0.55;100.00;102124.75;692309;28;1111;-60
2023/01/22 01:31:06;;;;;;;26.92;16.65;;;;;;;-0.57;100.00;102133.13;690694;28;1272;-60
2023/01/22 01:31:26;;;;;;;26.70;17.45;;;;;;;-0.54;100.00;102133.31;692601;28;1435;-60
2023/01/22 01:31:53;;;;;;;26.45;17.25;;;;;;;-0.53;100.00;102125.75;693202;28;1377;-61
2023/01/22 01:32:13;;;;;;;26.73;17.35;;;;;;;-0.57;100.00;102128.91;692527;28;1550;-61
2023/01/22 01:32:33;;;;;;;26.07;16.80;;;;;;;-0.49;100.00;102131.94;693160;28;1302;-59
2023/01/22 01:32:54;;;;;;;25.33;16.53;;;;;;;-0.50;100.00;102129.28;695217;28;5101;-62
2023/01/22 01:33:14;;;;;;;25.13;16.30;;;;;;;-0.50;100.00;102130.16;698603;28;1475;-60
2023/01/22 01:33:35;;;;;;;23.83;16.07;;;;;;;-0.49;100.00;102134.50;695650;28;1131;-62
2023/01/22 01:33:56;;;;;;;24.20;16.23;;;;;;;-0.50;100.00;102131.84;694471;28;1356;-60
2023/01/22 01:34:16;;;;;;;25.30;16.58;;;;;;;-0.53;100.00;102135.09;691546;28;1124;-60
2023/01/22 01:34:36;;;;;;;24.20;15.90;;;;;;;-0.55;100.00;102132.44;690343;28;1592;-60
2023/01/22 01:34:57;;;;;;;23.48;15.13;;;;;;;-0.57;100.00;102143.41;689819;28;1065;-60
2023/01/22 01:35:18;;;;;;;25.27;15.87;;;;;;;-0.58;100.00;102133.91;692578;28;1050;-60
2023/01/22 01:35:39;;;;;;;24.17;16.02;;;;;;;-0.57;100.00;102133.13;693512;28;1064;-62
2023/01/22 01:36:01;;;;;;;23.55;15.50;;;;;;;-0.62;100.00;102139.66;693997;28;4372;-62
2023/01/22 01:36:24;;;;;;;24.08;15.90;;;;;;;-0.66;100.00;102140.28;695004;28;2036;-61
2023/01/22 01:36:45;;;;;;;24.33;15.85;;;;;;;-0.63;100.00;102131.06;693975;28;1020;-61
2023/01/22 01:37:05;;;;;;;24.60;15.93;;;;;;;-0.55;100.00;102134.13;694323;28;1289;-59
2023/01/22 01:37:26;;;;;;;24.20;15.70;;;;;;;-0.54;100.00;102133.31;692290;28;1239;-61